Terminal Aerodrome Forecast
Issued by NWS

Home | Current Version | Previous Version | Text Only | Print | Product List | Glossary On
Versions: 1 2 3 4 5 6 7 8 9 10 11 12 13 14 15 16 17 18 19 20 21 22 23 24 25 26 27 28 29
000
FTUS43 KIND 192300
TAFBMG
TAF
KBMG 192325Z 2000/2024 20006KT P6SM BKN250
     FM201300 22013KT P6SM VCSH OVC040
     FM202300 27010KT P6SM BKN025
      AMD LTD TO CLD VIS AND WIND 2001/2013=

USA.gov is the U.S. government's official web portal to all federal, state and local government web resources and services.